Time;durP1;ratioP1;P1;durP2;ratioP2;P2;SDS_P1;SDS_P2;PMS_P1;PMS_P2;Temp;Humidity;BMP_temperature;BMP_pressure;BME280_temperature;BME280_humidity;BME280_pressure;Samples;Min_cycle;Max_cycle;Signal;HPM_P1;HPM_P2
2023/06/13 00:00:16;;;;;;;5.5;4.2;;;;;;;13.91;70.77734;933.9622;;;;
2023/06/13 00:02:47;;;;;;;4.8;4;;;;;;;13.86;70.94141;934.0275;;;;
2023/06/13 00:05:16;;;;;;;4.2;3.7;;;;;;;13.82;70.60254;933.9936;;;;
2023/06/13 00:07:39;;;;;;;5.9;4.1;;;;;;;13.55;71.07715;934.0314;;;;
2023/06/13 00:10:05;;;;;;;5.4;4.1;;;;;;;13.61;70.91309;933.9525;;;;
2023/06/13 00:12:32;;;;;;;6.3;4.1;;;;;;;13.66;71.08301;933.9724;;;;
2023/06/13 00:14:55;;;;;;;4.8;3.9;;;;;;;13.73;71.3916;933.9606;;;;
2023/06/13 00:17:25;;;;;;;4.5;3.8;;;;;;;13.73;71.33398;933.9589;;;;
2023/06/13 00:19:49;;;;;;;5.4;4.1;;;;;;;13.57;71.38867;933.8546;;;;
2023/06/13 00:22:15;;;;;;;4.4;3.5;;;;;;;13.51;71.10449;933.8958;;;;
2023/06/13 00:24:40;;;;;;;8.8;4.3;;;;;;;13.35;71.58301;933.9425;;;;
2023/06/13 00:27:06;;;;;;;5.8;4;;;;;;;13.28;71.9502;933.959;;;;
2023/06/13 00:29:31;;;;;;;6;3.6;;;;;;;13.29;72.14746;933.927;;;;
2023/06/13 00:31:56;;;;;;;4.6;3.9;;;;;;;13.35;72.1123;933.9193;;;;
2023/06/13 00:34:24;;;;;;;4.7;4.2;;;;;;;13.13;73.06348;933.8965;;;;
2023/06/13 00:36:50;;;;;;;5.9;4.2;;;;;;;13.16;73.14746;933.7587;;;;
2023/06/13 00:39:15;;;;;;;5.5;4.2;;;;;;;13.23;72.98828;933.8619;;;;
2023/06/13 00:41:40;;;;;;;5.7;4.2;;;;;;;13.24;73.41504;933.837;;;;
2023/06/13 00:44:06;;;;;;;4.8;4.3;;;;;;;13.07;73.90332;933.8186;;;;
2023/06/13 00:46:32;;;;;;;6.9;4.3;;;;;;;12.91;74.43652;933.8395;;;;
2023/06/13 00:48:56;;;;;;;4.8;4.1;;;;;;;12.94;74.05273;933.7817;;;;
2023/06/13 00:51:23;;;;;;;5.1;4.3;;;;;;;13;74.24707;933.7908;;;;
2023/06/13 00:53:48;;;;;;;6.4;4.4;;;;;;;13.07;73.74414;933.7347;;;;
2023/06/13 00:56:14;;;;;;;4.7;4.1;;;;;;;12.99;73.83203;933.7286;;;;
2023/06/13 00:58:39;;;;;;;5.1;4.6;;;;;;;12.87;74.06445;933.7126;;;;
2023/06/13 01:01:09;;;;;;;5;4.4;;;;;;;12.82;74.28613;933.7521;;;;
2023/06/13 01:03:33;;;;;;;6.6;4.2;;;;;;;12.78;74.5752;933.713;;;;
2023/06/13 01:05:56;;;;;;;5.1;4.2;;;;;;;12.83;74.52734;933.673;;;;
2023/06/13 01:08:23;;;;;;;5.2;4;;;;;;;12.82;74.40137;933.6619;;;;
2023/06/13 01:10:52;;;;;;;6.7;4;;;;;;;12.8;74.67188;933.6002;;;;
2023/06/13 01:13:16;;;;;;;4.3;3.9;;;;;;;12.82;74.33105;933.5636;;;;
2023/06/13 01:15:41;;;;;;;5.9;4.2;;;;;;;12.82;74.43359;933.5676;;;;
2023/06/13 01:18:08;;;;;;;5.2;4.1;;;;;;;12.82;74.83594;933.5402;;;;
2023/06/13 01:20:33;;;;;;;5.5;4;;;;;;;12.75;74.52637;933.5461;;;;
2023/06/13 01:23:02;;;;;;;4.7;4.2;;;;;;;12.72;74.96973;933.4888;;;;
2023/06/13 01:25:26;;;;;;;6.5;4.4;;;;;;;12.73;74.84277;933.4769;;;;
2023/06/13 01:27:55;;;;;;;5.1;4.2;;;;;;;12.73;74.78613;933.432;;;;
2023/06/13 01:30:19;;;;;;;5.8;4.6;;;;;;;12.71;74.94141;933.3508;;;;
2023/06/13 01:32:46;;;;;;;6.2;4.4;;;;;;;12.65;75.28809;933.3472;;;;
2023/06/13 01:35:11;;;;;;;6.2;4.3;;;;;;;12.52;75.44922;933.2894;;;;
2023/06/13 01:37:41;;;;;;;5.5;4.5;;;;;;;12.24;76.65039;933.2452;;;;
2023/06/13 01:40:11;;;;;;;5.6;4.2;;;;;;;12.19;76.98438;933.1964;;;;
2023/06/13 01:42:36;;;;;;;5.9;4.2;;;;;;;12.01;77.81348;933.2417;;;;
2023/06/13 01:45:04;;;;;;;5.6;4.6;;;;;;;11.98;78.05957;933.2522;;;;
2023/06/13 01:47:30;;;;;;;5.3;4.5;;;;;;;12.08;77.87207;933.1994;;;;
2023/06/13 01:49:55;;;;;;;4.9;4.3;;;;;;;12.19;77.48926;933.2051;;;;
2023/06/13 01:52:20;;;;;;;6.6;4.3;;;;;;;12.28;77.13867;933.1739;;;;
2023/06/13 01:54:45;;;;;;;5.2;4.5;;;;;;;12.11;77.23438;933.1458;;;;
2023/06/13 01:57:10;;;;;;;5.2;4.4;;;;;;;12.07;77.2959;933.1802;;;;
2023/06/13 01:59:35;;;;;;;5.9;4.5;;;;;;;12.1;77.73633;933.1266;;;;
2023/06/13 02:02:04;;;;;;;4.9;4.2;;;;;;;12.13;77.31934;933.1528;;;;
2023/06/13 02:04:29;;;;;;;6.3;4.4;;;;;;;12.17;77.13086;933.1031;;;;
2023/06/13 02:06:57;;;;;;;5.1;4.2;;;;;;;12.2;77.21582;933.1086;;;;
2023/06/13 02:09:22;;;;;;;6;4.5;;;;;;;12.18;77.25781;933.068;;;;
2023/06/13 02:11:48;;;;;;;6;4.5;;;;;;;12.16;77.38086;933.0984;;;;
2023/06/13 02:14:14;;;;;;;8;4.5;;;;;;;12.18;77.24805;933.0895;;;;
2023/06/13 02:16:40;;;;;;;7.7;4.5;;;;;;;12.15;77.4043;933.0139;;;;
2023/06/13 02:19:07;;;;;;;5.3;4.4;;;;;;;12.17;77.11914;932.9882;;;;
2023/06/13 02:25:00;;;;;;;5.4;4.2;;;;;;;11.9;78.10156;932.9717;;;;
2023/06/13 02:27:25;;;;;;;6;4.5;;;;;;;11.79;78.45898;932.9727;;;;
2023/06/13 02:29:52;;;;;;;5.2;4.3;;;;;;;11.75;78.63672;932.9525;;;;
2023/06/13 02:32:18;;;;;;;5.8;4.2;;;;;;;11.64;78.95898;932.9402;;;;
2023/06/13 02:35:26;;;;;;;7.8;4.4;;;;;;;11.58;79.15527;932.9194;;;;
2023/06/13 02:37:54;;;;;;;4.9;4.4;;;;;;;11.59;79.11133;932.9233;;;;
2023/06/13 02:40:18;;;;;;;6.4;4.6;;;;;;;11.61;78.75781;932.9001;;;;
2023/06/13 02:42:44;;;;;;;7.5;4.7;;;;;;;11.6;78.95215;932.9487;;;;
2023/06/13 02:45:10;;;;;;;6.1;4.6;;;;;;;11.55;79.84863;932.9849;;;;
2023/06/13 02:47:38;;;;;;;5.8;4.3;;;;;;;11.61;79.34277;932.912;;;;
2023/06/13 02:50:04;;;;;;;6.3;4.7;;;;;;;11.64;79.22363;932.9514;;;;
2023/06/13 02:52:34;;;;;;;6.1;4.3;;;;;;;11.72;78.48145;932.9519;;;;
2023/06/13 02:55:02;;;;;;;6;4.8;;;;;;;11.63;78.48828;932.9705;;;;
2023/06/13 02:57:26;;;;;;;6.1;4.3;;;;;;;11.61;78.74805;932.9984;;;;
2023/06/13 02:59:53;;;;;;;5.8;4.7;;;;;;;11.37;79.5752;932.9858;;;;
2023/06/13 03:02:20;;;;;;;6.3;4.7;;;;;;;11.34;80.07129;932.9325;;;;
2023/06/13 03:04:43;;;;;;;7.5;5.2;;;;;;;11.4;79.7627;932.8812;;;;
2023/06/13 03:07:10;;;;;;;6.8;5;;;;;;;11.57;79.47363;933.0031;;;;
2023/06/13 03:09:34;;;;;;;6.3;4.6;;;;;;;11.58;79.57813;932.9752;;;;
2023/06/13 03:12:02;;;;;;;6.7;4.5;;;;;;;11.51;79.29199;932.9913;;;;
2023/06/13 03:14:25;;;;;;;5.7;4.5;;;;;;;11.46;79.27051;933.0266;;;;
2023/06/13 03:16:55;;;;;;;5.9;4.4;;;;;;;11.39;79.52246;933.0208;;;;
2023/06/13 03:19:17;;;;;;;5.6;4.4;;;;;;;11.41;80.05078;932.99;;;;
2023/06/13 03:21:43;;;;;;;6.3;5;;;;;;;11.38;80.02246;932.9969;;;;
2023/06/13 03:24:11;;;;;;;4.9;4.3;;;;;;;11.26;80.02246;932.9844;;;;
2023/06/13 03:26:40;;;;;;;5.6;4.6;;;;;;;11.19;80.44531;933.0034;;;;
2023/06/13 03:29:07;;;;;;;7.4;4.7;;;;;;;10.91;81.30566;933.0066;;;;
2023/06/13 03:31:31;;;;;;;7.2;4.6;;;;;;;10.74;82.40625;933.0502;;;;
2023/06/13 03:34:00;;;;;;;5.8;5;;;;;;;10.55;83.4873;932.9836;;;;
2023/06/13 03:36:26;;;;;;;7.4;4.8;;;;;;;10.58;83.43848;932.9526;;;;
2023/06/13 03:38:52;;;;;;;6.7;4.9;;;;;;;10.69;83.33203;932.9841;;;;
2023/06/13 03:41:17;;;;;;;6.2;4.5;;;;;;;10.87;82.56738;932.9333;;;;
2023/06/13 03:43:44;;;;;;;6.1;5;;;;;;;10.98;82.05176;932.95;;;;
2023/06/13 03:46:09;;;;;;;7.4;5;;;;;;;10.76;82.56934;932.9689;;;;
2023/06/13 03:49:56;;;;;;;5.9;4.6;;;;;;;10.69;82.9209;932.9553;;;;
2023/06/13 03:52:21;;;;;;;6.6;4.8;;;;;;;10.68;83.26172;932.9681;;;;
2023/06/13 03:54:47;;;;;;;6.4;4.6;;;;;;;10.71;82.9834;932.914;;;;
2023/06/13 03:57:14;;;;;;;8;4.8;;;;;;;10.59;83.50684;932.8699;;;;
2023/06/13 03:59:38;;;;;;;6.5;4.8;;;;;;;10.46;84.12012;932.8427;;;;
2023/06/13 04:02:37;;;;;;;8.3;4.8;;;;;;;10.3;84.98047;932.8789;;;;
2023/06/13 04:05:12;;;;;;;5.5;4.5;;;;;;;10.29;85.35547;932.9242;;;;
2023/06/13 04:07:36;;;;;;;6.7;4.9;;;;;;;10.4;84.96777;932.8806;;;;
2023/06/13 04:10:03;;;;;;;6.2;4.9;;;;;;;10.54;84.41016;932.9056;;;;
2023/06/13 04:12:28;;;;;;;8.8;5.5;;;;;;;;;;;;;
2023/06/13 04:14:53;;;;;;;7.1;5.1;;;;;;;;;;;;;
2023/06/13 04:17:18;;;;;;;6.9;4.8;;;;;;;;;;;;;
2023/06/13 04:19:43;;;;;;;7;4.9;;;;;;;;;;;;;
2023/06/13 04:22:09;;;;;;;5.1;4.4;;;;;;;;;;;;;
2023/06/13 04:24:35;;;;;;;7.1;4.4;;;;;;;;;;;;;
2023/06/13 04:27:00;;;;;;;5.5;4.6;;;;;;;;;;;;;
2023/06/13 04:29:25;;;;;;;6.7;4.5;;;;;;;;;;;;;
2023/06/13 04:31:50;;;;;;;5.7;4.7;;;;;;;;;;;;;
2023/06/13 04:34:20;;;;;;;6.4;4.8;;;;;;;;;;;;;
2023/06/13 04:36:44;;;;;;;5.3;4.4;;;;;;;;;;;;;
2023/06/13 04:39:08;;;;;;;6.1;4.4;;;;;;;;;;;;;
2023/06/13 04:41:35;;;;;;;6.8;4.8;;;;;;;;;;;;;
2023/06/13 04:43:59;;;;;;;5.4;4.5;;;;;;;;;;;;;
2023/06/13 04:46:24;;;;;;;7.2;4.7;;;;;;;;;;;;;
2023/06/13 04:48:50;;;;;;;6.3;4.5;;;;;;;;;;;;;
2023/06/13 04:51:20;;;;;;;7.6;5.2;;;;;;;;;;;;;
2023/06/13 04:53:41;;;;;;;5.7;4.3;;;;;;;;;;;;;
2023/06/13 04:56:07;;;;;;;6.6;4.7;;;;;;;;;;;;;
2023/06/13 04:58:32;;;;;;;5.5;4.6;;;;;;;;;;;;;
2023/06/13 05:00:59;;;;;;;7.3;5;;;;;;;;;;;;;
2023/06/13 05:03:23;;;;;;;6.2;4.7;;;;;;;;;;;;;
2023/06/13 05:05:48;;;;;;;5.9;3.9;;;;;;;;;;;;;
2023/06/13 05:08:13;;;;;;;8.2;4.3;;;;;;;;;;;;;
2023/06/13 05:10:39;;;;;;;7.4;4;;;;;;;;;;;;;
2023/06/13 05:13:04;;;;;;;5.3;3.5;;;;;;;;;;;;;
2023/06/13 05:15:31;;;;;;;4.6;3.5;;;;;;;;;;;;;
2023/06/13 05:17:56;;;;;;;6.6;3.8;;;;;;;;;;;;;
2023/06/13 05:20:25;;;;;;;6;3.7;;;;;;;;;;;;;
2023/06/13 05:22:47;;;;;;;5.4;3.8;;;;;;;;;;;;;
2023/06/13 05:25:15;;;;;;;5.7;4;;;;;;;;;;;;;
2023/06/13 05:27:40;;;;;;;6.7;3.5;;;;;;;;;;;;;
2023/06/13 05:30:24;;;;;;;5.7;4;;;;;;;;;;;;;
2023/06/13 05:32:50;;;;;;;3.7;3.3;;;;;;;;;;;;;
2023/06/13 05:35:15;;;;;;;5.1;3.5;;;;;;;;;;;;;
2023/06/13 05:37:43;;;;;;;6;3.4;;;;;;;;;;;;;
2023/06/13 05:40:08;;;;;;;4.7;3.8;;;;;;;;;;;;;
2023/06/13 05:42:34;;;;;;;6.8;3.7;;;;;;;;;;;;;
2023/06/13 05:44:58;;;;;;;4.8;3.7;;;;;;;;;;;;;
2023/06/13 05:47:23;;;;;;;4.2;3.2;;;;;;;;;;;;;
2023/06/13 05:49:48;;;;;;;8.4;3.9;;;;;;;;;;;;;
2023/06/13 05:52:14;;;;;;;5.2;4.3;;;;;;;;;;;;;
2023/06/13 05:54:39;;;;;;;4.8;3.9;;;;;;;;;;;;;
2023/06/13 05:57:06;;;;;;;4.2;3.6;;;;;;;;;;;;;
2023/06/13 05:59:31;;;;;;;5.6;3.8;;;;;;;;;;;;;
2023/06/13 06:01:58;;;;;;;8.4;5;;;;;;;;;;;;;
2023/06/13 06:04:25;;;;;;;9.3;4.8;;;;;;;;;;;;;
2023/06/13 06:06:51;;;;;;;6.8;4.4;;;;;;;;;;;;;
2023/06/13 06:09:16;;;;;;;5.2;4.2;;;;;;;;;;;;;
2023/06/13 06:11:41;;;;;;;7.1;4.1;;;;;;;;;;;;;
2023/06/13 06:14:07;;;;;;;5.3;3.9;;;;;;;;;;;;;
2023/06/13 06:16:32;;;;;;;5.2;3.8;;;;;;;;;;;;;
2023/06/13 06:18:57;;;;;;;6.5;4;;;;;;;;;;;;;
2023/06/13 06:21:24;;;;;;;5.7;3.8;;;;;;;;;;;;;
2023/06/13 06:23:49;;;;;;;6.3;4;;;;;;;;;;;;;
2023/06/13 06:26:14;;;;;;;4;3.6;;;;;;;;;;;;;
2023/06/13 06:28:39;;;;;;;4;3.5;;;;;;;;;;;;;
2023/06/13 06:31:06;;;;;;;4.1;3.6;;;;;;;;;;;;;
2023/06/13 06:33:31;;;;;;;4.8;4;;;;;;;;;;;;;
2023/06/13 06:35:56;;;;;;;5.2;3.8;;;;;;;;;;;;;
2023/06/13 06:38:22;;;;;;;4.8;3.7;;;;;;;;;;;;;
2023/06/13 06:40:47;;;;;;;4.3;3.7;;;;;;;;;;;;;
2023/06/13 06:43:12;;;;;;;4.5;3.4;;;;;;;;;;;;;
2023/06/13 06:45:37;;;;;;;6.6;3.7;;;;;;;;;;;;;
2023/06/13 06:48:03;;;;;;;4.7;3.7;;;;;;;;;;;;;
2023/06/13 06:50:29;;;;;;;6;4;;;;;;;;;;;;;
2023/06/13 06:52:54;;;;;;;5.5;3.5;;;;;;;;;;;;;
2023/06/13 06:55:21;;;;;;;4.3;3.6;;;;;;;;;;;;;
2023/06/13 06:57:46;;;;;;;3.9;3.4;;;;;;;;;;;;;
2023/06/13 07:00:14;;;;;;;6.5;3.6;;;;;;;;;;;;;
2023/06/13 07:02:38;;;;;;;3.9;3.5;;;;;;;;;;;;;
2023/06/13 07:05:03;;;;;;;4.5;3.4;;;;;;;;;;;;;
2023/06/13 07:07:28;;;;;;;4.3;3.5;;;;;;;;;;;;;
2023/06/13 07:09:55;;;;;;;5.4;3.5;;;;;;;;;;;;;
2023/06/13 07:12:20;;;;;;;4.2;3.2;;;;;;;;;;;;;
2023/06/13 07:14:45;;;;;;;3.5;3.1;;;;;;;;;;;;;
2023/06/13 07:17:11;;;;;;;5.7;3.5;;;;;;;;;;;;;
2023/06/13 07:19:36;;;;;;;3.5;3.2;;;;;;;;;;;;;
2023/06/13 07:22:04;;;;;;;5.5;3.3;;;;;;;;;;;;;
2023/06/13 07:24:29;;;;;;;3.5;3.2;;;;;;;;;;;;;
2023/06/13 07:27:20;;;;;;;3.1;2.9;;;;;;;;;;;;;
2023/06/13 07:29:46;;;;;;;4.8;3.3;;;;;;;;;;;;;
2023/06/13 07:32:12;;;;;;;6.4;3.4;;;;;;;;;;;;;
2023/06/13 07:34:38;;;;;;;4.9;3.4;;;;;;;;;;;;;
2023/06/13 07:37:03;;;;;;;6.1;3.1;;;;;;;;;;;;;
2023/06/13 07:39:28;;;;;;;5.7;3.2;;;;;;;;;;;;;
2023/06/13 07:41:53;;;;;;;4.2;3.2;;;;;;;;;;;;;
2023/06/13 07:44:21;;;;;;;4.5;3.1;;;;;;;;;;;;;
2023/06/13 07:46:46;;;;;;;3.5;2.9;;;;;;;;;;;;;
2023/06/13 07:49:14;;;;;;;4.3;3;;;;;;;;;;;;;
2023/06/13 07:51:39;;;;;;;3.6;3.2;;;;;;;;;;;;;
2023/06/13 07:54:05;;;;;;;5;3.2;;;;;;;;;;;;;
2023/06/13 07:56:30;;;;;;;6.5;3.3;;;;;;;;;;;;;
2023/06/13 07:58:56;;;;;;;4.8;3.5;;;;;;;;;;;;;
2023/06/13 08:01:22;;;;;;;4.4;2.9;;;;;;;;;;;;;
2023/06/13 08:03:49;;;;;;;4.5;3.3;;;;;;;;;;;;;
2023/06/13 08:06:14;;;;;;;4.9;3.1;;;;;;;;;;;;;
2023/06/13 08:08:39;;;;;;;6;3.3;;;;;;;;;;;;;
2023/06/13 08:11:04;;;;;;;3.7;2.7;;;;;;;;;;;;;
2023/06/13 08:13:31;;;;;;;3.8;2.9;;;;;;;;;;;;;
2023/06/13 08:15:56;;;;;;;4.3;3.1;;;;;;;;;;;;;
2023/06/13 08:18:22;;;;;;;3.6;3.1;;;;;;;;;;;;;
2023/06/13 08:20:47;;;;;;;6.4;3.1;;;;;;;;;;;;;
2023/06/13 08:23:14;;;;;;;3.9;2.8;;;;;;;;;;;;;
2023/06/13 08:25:40;;;;;;;4;3;;;;;;;;;;;;;
2023/06/13 08:28:06;;;;;;;3.2;2.9;;;;;;;;;;;;;
2023/06/13 08:30:30;;;;;;;5.1;3;;;;;;;;;;;;;
2023/06/13 08:33:01;;;;;;;4.6;3.2;;;;;;;;;;;;;
2023/06/13 08:35:29;;;;;;;4;3.3;;;;;;;;;;;;;
2023/06/13 08:37:54;;;;;;;5.2;3.4;;;;;;;;;;;;;
2023/06/13 08:40:21;;;;;;;4.1;3;;;;;;;;;;;;;
2023/06/13 08:42:46;;;;;;;6;3.2;;;;;;;;;;;;;
2023/06/13 08:45:15;;;;;;;5.9;3.4;;;;;;;;;;;;;
2023/06/13 08:47:46;;;;;;;4.6;3.4;;;;;;;;;;;;;
2023/06/13 08:50:05;;;;;;;4.4;3.3;;;;;;;;;;;;;
2023/06/13 08:52:34;;;;;;;5.1;3.2;;;;;;;;;;;;;
2023/06/13 08:54:59;;;;;;;6.1;3.2;;;;;;;;;;;;;
2023/06/13 08:57:26;;;;;;;3.7;3.3;;;;;;;;;;;;;
2023/06/13 08:59:51;;;;;;;5;3.5;;;;;;;;;;;;;
2023/06/13 09:02:17;;;;;;;3.4;3;;;;;;;;;;;;;
2023/06/13 09:04:43;;;;;;;5.8;3.1;;;;;;;;;;;;;
2023/06/13 09:07:08;;;;;;;4.9;3.1;;;;;;;;;;;;;
2023/06/13 09:09:33;;;;;;;4.2;3;;;;;;;;;;;;;
2023/06/13 09:11:58;;;;;;;3.6;3.1;;;;;;;;;;;;;
2023/06/13 09:14:23;;;;;;;4.1;3.2;;;;;;;;;;;;;
2023/06/13 09:16:51;;;;;;;6.3;3;;;;;;;;;;;;;
2023/06/13 09:19:16;;;;;;;5.7;3.3;;;;;;;;;;;;;
2023/06/13 09:21:42;;;;;;;5.2;3.1;;;;;;;;;;;;;
2023/06/13 09:24:07;;;;;;;6;3.2;;;;;;;;;;;;;
2023/06/13 09:26:32;;;;;;;6.5;3.4;;;;;;;;;;;;;
2023/06/13 09:28:57;;;;;;;5.8;3.3;;;;;;;;;;;;;
2023/06/13 09:31:23;;;;;;;4.5;3.2;;;;;;;;;;;;;
2023/06/13 09:33:48;;;;;;;3.6;3;;;;;;;;;;;;;
2023/06/13 09:36:16;;;;;;;5.9;3.5;;;;;;;;;;;;;
2023/06/13 09:38:41;;;;;;;6.8;3.3;;;;;;;;;;;;;
2023/06/13 09:41:06;;;;;;;4.7;3.3;;;;;;;;;;;;;
2023/06/13 09:43:31;;;;;;;3.5;3.1;;;;;;;;;;;;;
2023/06/13 09:45:56;;;;;;;3.3;3;;;;;;;;;;;;;
2023/06/13 09:48:22;;;;;;;4.8;3;;;;;;;;;;;;;
2023/06/13 09:50:48;;;;;;;3.4;2.9;;;;;;;;;;;;;
2023/06/13 09:53:15;;;;;;;3.8;3.1;;;;;;;;;;;;;
2023/06/13 09:55:40;;;;;;;3.3;2.9;;;;;;;;;;;;;
2023/06/13 09:58:05;;;;;;;3.8;3;;;;;;;;;;;;;
2023/06/13 10:00:33;;;;;;;6.9;3.4;;;;;;;;;;;;;
2023/06/13 10:02:58;;;;;;;6.4;3.4;;;;;;;;;;;;;
2023/06/13 10:05:26;;;;;;;5.5;3.3;;;;;;;;;;;;;
2023/06/13 10:07:51;;;;;;;3.8;3.2;;;;;;;;;;;;;
2023/06/13 10:10:18;;;;;;;5.7;3.4;;;;;;;;;;;;;
2023/06/13 10:12:44;;;;;;;4.4;2.8;;;;;;;;;;;;;
2023/06/13 10:15:11;;;;;;;4.3;3.1;;;;;;;;;;;;;
2023/06/13 10:17:36;;;;;;;4.2;3.1;;;;;;;;;;;;;
2023/06/13 10:20:01;;;;;;;3.5;3.2;;;;;;;;;;;;;
2023/06/13 10:22:26;;;;;;;6.3;3.1;;;;;;;;;;;;;
2023/06/13 10:24:51;;;;;;;4.1;2.9;;;;;;;;;;;;;
2023/06/13 10:27:17;;;;;;;7.3;3.2;;;;;;;;;;;;;
2023/06/13 10:29:41;;;;;;;3.7;2.9;;;;;;;;;;;;;
2023/06/13 10:32:07;;;;;;;6.2;3.1;;;;;;;;;;;;;
2023/06/13 10:34:34;;;;;;;4.2;3.2;;;;;;;;;;;;;
2023/06/13 10:36:57;;;;;;;5.5;3.1;;;;;;;;;;;;;
2023/06/13 10:39:22;;;;;;;4.1;3.3;;;;;;;;;;;;;
2023/06/13 10:41:47;;;;;;;5.8;3.1;;;;;;;;;;;;;
2023/06/13 10:44:12;;;;;;;4.4;3.1;;;;;;;;;;;;;
2023/06/13 10:46:37;;;;;;;6.7;3.2;;;;;;;;;;;;;
2023/06/13 10:49:03;;;;;;;7.2;3.3;;;;;;;;;;;;;
2023/06/13 10:51:29;;;;;;;4.3;3.3;;;;;;;;;;;;;
2023/06/13 10:53:54;;;;;;;9.8;3.1;;;;;;;;;;;;;
2023/06/13 10:56:19;;;;;;;3.9;3.2;;;;;;;;;;;;;
2023/06/13 10:58:46;;;;;;;5.7;3.3;;;;;;;;;;;;;
2023/06/13 11:01:11;;;;;;;4.3;3;;;;;;;;;;;;;
2023/06/13 11:03:36;;;;;;;4.7;3.3;;;;;;;;;;;;;
2023/06/13 11:06:01;;;;;;;6.2;3.4;;;;;;;;;;;;;
2023/06/13 11:08:26;;;;;;;6;3.4;;;;;;;;;;;;;
2023/06/13 11:10:52;;;;;;;5.5;3.4;;;;;;;;;;;;;
2023/06/13 11:13:17;;;;;;;4.1;2.9;;;;;;;;;;;;;
2023/06/13 11:15:43;;;;;;;8.2;3.3;;;;;;;;;;;;;
2023/06/13 11:18:07;;;;;;;6.9;3.5;;;;;;;;;;;;;
2023/06/13 11:20:33;;;;;;;8.8;3.4;;;;;;;;;;;;;
2023/06/13 11:22:58;;;;;;;6.6;3.3;;;;;;;;;;;;;
2023/06/13 11:25:23;;;;;;;6.7;3.4;;;;;;;;;;;;;
2023/06/13 11:27:48;;;;;;;6.3;3.2;;;;;;;;;;;;;
2023/06/13 11:30:14;;;;;;;6.2;3.4;;;;;;;;;;;;;
2023/06/13 11:32:39;;;;;;;5.4;3.3;;;;;;;;;;;;;
2023/06/13 11:35:05;;;;;;;3.9;2.8;;;;;;;;;;;;;
2023/06/13 11:37:30;;;;;;;6.8;3.4;;;;;;;;;;;;;
2023/06/13 11:39:55;;;;;;;4.1;3.2;;;;;;;;;;;;;
2023/06/13 11:42:20;;;;;;;8.1;3.4;;;;;;;;;;;;;
2023/06/13 11:44:47;;;;;;;5.1;3.3;;;;;;;;;;;;;
2023/06/13 11:47:13;;;;;;;8.5;3.4;;;;;;;;;;;;;
2023/06/13 11:49:38;;;;;;;5.7;3.2;;;;;;;;;;;;;
2023/06/13 11:52:03;;;;;;;3.8;3.2;;;;;;;;;;;;;
2023/06/13 11:54:29;;;;;;;4.1;2.9;;;;;;;;;;;;;
2023/06/13 11:56:54;;;;;;;4.9;3;;;;;;;;;;;;;
2023/06/13 11:59:21;;;;;;;6.8;3.1;;;;;;;;;;;;;
2023/06/13 12:01:46;;;;;;;4.8;3;;;;;;;;;;;;;
2023/06/13 12:04:14;;;;;;;4.7;3.1;;;;;;;;;;;;;
2023/06/13 12:06:38;;;;;;;6.2;3.1;;;;;;;;;;;;;
2023/06/13 12:09:03;;;;;;;5.3;3.3;;;;;;;;;;;;;
2023/06/13 12:11:29;;;;;;;5.2;3.1;;;;;;;;;;;;;
2023/06/13 12:13:54;;;;;;;6.7;3.2;;;;;;;;;;;;;
2023/06/13 12:16:18;;;;;;;6.1;3.5;;;;;;;;;;;;;
2023/06/13 12:18:46;;;;;;;4.2;3.2;;;;;;;;;;;;;
2023/06/13 12:21:11;;;;;;;6;3.1;;;;;;;;;;;;;
2023/06/13 12:23:37;;;;;;;7.4;3.6;;;;;;;;;;;;;
2023/06/13 12:26:03;;;;;;;5;3.2;;;;;;;;;;;;;
2023/06/13 12:28:28;;;;;;;5.9;3.3;;;;;;;;;;;;;
2023/06/13 12:30:55;;;;;;;6.8;3.3;;;;;;;;;;;;;
2023/06/13 12:33:19;;;;;;;5;3;;;;;;;;;;;;;
2023/06/13 12:35:45;;;;;;;4.4;3;;;;;;;;;;;;;
2023/06/13 12:38:10;;;;;;;5.1;3.3;;;;;;;;;;;;;
2023/06/13 12:40:35;;;;;;;6.2;3.5;;;;;;;;;;;;;
2023/06/13 12:43:02;;;;;;;8.8;3.4;;;;;;;;;;;;;
2023/06/13 12:45:27;;;;;;;6.8;3.5;;;;;;;;;;;;;
2023/06/13 12:47:53;;;;;;;3.4;2.9;;;;;;;;;;;;;
2023/06/13 12:50:18;;;;;;;4.4;3;;;;;;;;;;;;;
2023/06/13 12:52:43;;;;;;;4.8;3.4;;;;;;;;;;;;;
2023/06/13 12:55:08;;;;;;;5.6;3.5;;;;;;;;;;;;;
2023/06/13 12:57:36;;;;;;;7.1;2.8;;;;;;;;;;;;;
2023/06/13 13:00:01;;;;;;;4.7;2.9;;;;;;;;;;;;;
2023/06/13 13:02:28;;;;;;;5;3;;;;;;;;;;;;;
2023/06/13 13:04:57;;;;;;;6.5;3.2;;;;;;;;;;;;;
2023/06/13 13:07:17;;;;;;;5.4;3.1;;;;;;;;;;;;;
2023/06/13 13:09:43;;;;;;;4.4;3;;;;;;;;;;;;;
2023/06/13 13:12:09;;;;;;;5;3.1;;;;;;;;;;;;;
2023/06/13 13:14:34;;;;;;;4.5;3.1;;;;;;;;;;;;;
2023/06/13 13:16:59;;;;;;;4.3;3.1;;;;;;;;;;;;;
2023/06/13 13:19:26;;;;;;;5.5;2.9;;;;;;;;;;;;;
2023/06/13 13:21:51;;;;;;;7.4;3.1;;;;;;;;;;;;;
2023/06/13 13:24:17;;;;;;;8.4;3.3;;;;;;;;;;;;;
2023/06/13 13:26:43;;;;;;;5.4;3.1;;;;;;;;;;;;;
2023/06/13 13:29:08;;;;;;;8.4;3.3;;;;;;;;;;;;;
2023/06/13 13:31:33;;;;;;;6.5;3.1;;;;;;;;;;;;;
2023/06/13 13:33:59;;;;;;;4.7;2.8;;;;;;;;;;;;;
2023/06/13 13:36:24;;;;;;;5.2;3.2;;;;;;;;;;;;;
2023/06/13 13:38:51;;;;;;;5.5;2.8;;;;;;;;;;;;;
2023/06/13 13:41:15;;;;;;;16.8;3.6;;;;;;;;;;;;;
2023/06/13 13:43:41;;;;;;;8.5;3.2;;;;;;;;;;;;;
2023/06/13 13:46:06;;;;;;;4.5;2.7;;;;;;;;;;;;;
2023/06/13 13:48:33;;;;;;;5.8;3.5;;;;;;;;;;;;;
2023/06/13 13:50:57;;;;;;;3.6;3.3;;;;;;;;;;;;;
2023/06/13 13:53:26;;;;;;;5.6;3.6;;;;;;;;;;;;;
2023/06/13 13:55:49;;;;;;;5.7;2.8;;;;;;;;;;;;;
2023/06/13 13:58:17;;;;;;;7.5;3.2;;;;;;;;;;;;;
2023/06/13 14:00:41;;;;;;;5;2.8;;;;;;;;;;;;;
2023/06/13 14:03:08;;;;;;;6;3;;;;;;;;;;;;;
2023/06/13 14:05:33;;;;;;;5.5;3.3;;;;;;;;;;;;;
2023/06/13 14:07:59;;;;;;;3.7;3;;;;;;;;;;;;;
2023/06/13 14:10:24;;;;;;;8.3;2.9;;;;;;;;;;;;;
2023/06/13 14:12:50;;;;;;;4.7;2.9;;;;;;;;;;;;;
2023/06/13 14:15:15;;;;;;;10.1;3.3;;;;;;;;;;;;;
2023/06/13 14:17:41;;;;;;;3.5;3;;;;;;;;;;;;;
2023/06/13 14:20:08;;;;;;;5.5;3;;;;;;;;;;;;;
2023/06/13 14:22:34;;;;;;;4.6;2.9;;;;;;;;;;;;;
2023/06/13 14:24:59;;;;;;;5.3;3.1;;;;;;;;;;;;;
2023/06/13 14:27:27;;;;;;;5.8;3;;;;;;;;;;;;;
2023/06/13 14:29:52;;;;;;;3.7;3;;;;;;;;;;;;;
2023/06/13 14:32:17;;;;;;;6;2.9;;;;;;;;;;;;;
2023/06/13 14:34:42;;;;;;;4.2;2.7;;;;;;;;;;;;;
2023/06/13 14:37:09;;;;;;;5;3;;;;;;;;;;;;;
2023/06/13 14:39:35;;;;;;;3.4;2.7;;;;;;;;;;;;;
2023/06/13 14:42:00;;;;;;;6.2;3;;;;;;;;;;;;;
2023/06/13 14:44:25;;;;;;;5.9;2.7;;;;;;;;;;;;;
2023/06/13 14:46:54;;;;;;;4.2;2.7;;;;;;;;;;;;;
2023/06/13 14:49:22;;;;;;;4.3;2.8;;;;;;;;;;;;;
2023/06/13 14:51:47;;;;;;;4.7;2.8;;;;;;;;;;;;;
2023/06/13 14:54:15;;;;;;;3.4;2.6;;;;;;;;;;;;;
2023/06/13 14:56:39;;;;;;;4.5;3;;;;;;;;;;;;;
2023/06/13 14:59:04;;;;;;;6.5;3.2;;;;;;;;;;;;;
2023/06/13 15:01:31;;;;;;;6.5;3;;;;;;;;;;;;;
2023/06/13 15:04:00;;;;;;;4.3;2.8;;;;;;;;;;;;;
2023/06/13 15:06:23;;;;;;;3.5;2.7;;;;;;;;;;;;;
2023/06/13 15:08:48;;;;;;;5.3;3.2;;;;;;;;;;;;;
2023/06/13 15:11:13;;;;;;;7;3.3;;;;;;;;;;;;;
2023/06/13 15:13:39;;;;;;;5.4;3.3;;;;;;;;;;;;;
2023/06/13 15:16:03;;;;;;;3.9;2.8;;;;;;;;;;;;;
2023/06/13 15:18:32;;;;;;;4.6;2.8;;;;;;;;;;;;;
2023/06/13 15:20:55;;;;;;;6.8;2.9;;;;;;;;;;;;;
2023/06/13 15:23:20;;;;;;;8.2;3.1;;;;;;;;;;;;;
2023/06/13 15:25:45;;;;;;;4.4;2.8;;;;;;;;;;;;;
2023/06/13 15:28:12;;;;;;;5;2.8;;;;;;;;;;;;;
2023/06/13 15:30:38;;;;;;;4.3;2.7;;;;;;;;;;;;;
2023/06/13 15:33:03;;;;;;;5.8;2.9;;;;;;;;;;;;;
2023/06/13 15:35:28;;;;;;;4;2.6;;;;;;;;;;;;;
2023/06/13 15:37:58;;;;;;;4.6;3;;;;;;;;;;;;;
2023/06/13 15:40:26;;;;;;;3.8;2.7;;;;;;;;;;;;;
2023/06/13 15:42:50;;;;;;;4.6;2.7;;;;;;;;;;;;;
2023/06/13 15:45:17;;;;;;;4.2;2.8;;;;;;;;;;;;;
2023/06/13 15:47:42;;;;;;;3.3;2.6;;;;;;;;;;;;;
2023/06/13 15:50:10;;;;;;;4.1;2.7;;;;;;;;;;;;;
2023/06/13 15:52:33;;;;;;;6.1;3.2;;;;;;;;;;;;;
2023/06/13 15:55:00;;;;;;;4.9;2.8;;;;;;;;;;;;;
2023/06/13 15:57:25;;;;;;;4.7;2.9;;;;;;;;;;;;;
2023/06/13 15:59:50;;;;;;;3.5;2.5;;;;;;;;;;;;;
2023/06/13 16:02:15;;;;;;;5.7;2.6;;;;;;;;;;;;;
2023/06/13 16:04:43;;;;;;;3.7;2.7;;;;;;;;;;;;;
2023/06/13 16:07:08;;;;;;;5.1;2.8;;;;;;;;;;;;;
2023/06/13 16:09:33;;;;;;;3.4;2.7;;;;;;;;;;;;;
2023/06/13 16:11:59;;;;;;;5.5;2.8;;;;;;;;;;;;;
2023/06/13 16:14:25;;;;;;;4.3;3.1;;;;;;;;;;;;;
2023/06/13 16:16:50;;;;;;;4.9;2.7;;;;;;;;;;;;;
2023/06/13 16:19:16;;;;;;;5.3;2.8;;;;;;;;;;;;;
2023/06/13 16:21:41;;;;;;;6.5;3.2;;;;;;;;;;;;;
2023/06/13 16:24:09;;;;;;;5.2;2.7;;;;;;;;;;;;;
2023/06/13 16:26:33;;;;;;;4.5;2.5;;;;;;;;;;;;;
2023/06/13 16:29:02;;;;;;;5.5;2.7;;;;;;;;;;;;;
2023/06/13 16:31:27;;;;;;;4.1;2.8;;;;;;;;;;;;;
2023/06/13 16:33:52;;;;;;;3.9;2.9;;;;;;;;;;;;;
2023/06/13 16:36:17;;;;;;;4.4;2.7;;;;;;;;;;;;;
2023/06/13 16:38:44;;;;;;;3.8;2.6;;;;;;;;;;;;;
2023/06/13 16:41:09;;;;;;;4.3;2.6;;;;;;;;;;;;;
2023/06/13 16:43:34;;;;;;;5;2.7;;;;;;;;;;;;;
2023/06/13 16:46:00;;;;;;;4.5;2.9;;;;;;;;;;;;;
2023/06/13 16:48:26;;;;;;;3.3;2.5;;;;;;;;;;;;;
2023/06/13 16:50:51;;;;;;;4.3;2.4;;;;;;;;;;;;;
2023/06/13 16:53:17;;;;;;;6.8;2.5;;;;;;;;;;;;;
2023/06/13 16:55:45;;;;;;;4.1;2.4;;;;;;;;;;;;;
2023/06/13 16:58:08;;;;;;;3.2;2.5;;;;;;;;;;;;;
2023/06/13 17:00:36;;;;;;;4.3;2.6;;;;;;;;;;;;;
2023/06/13 17:03:01;;;;;;;3.2;2.4;;;;;;;;;;;;;
2023/06/13 17:05:29;;;;;;;4.9;2.7;;;;;;;;;;;;;
2023/06/13 17:07:54;;;;;;;5.1;2.6;;;;;;;;;;;;;
2023/06/13 17:10:23;;;;;;;6.3;2.5;;;;;;;;;;;;;
2023/06/13 17:12:51;;;;;;;5;2.5;;;;;;;;;;;;;
2023/06/13 17:15:17;;;;;;;3.8;2.6;;;;;;;;;;;;;
2023/06/13 17:17:42;;;;;;;4.3;2.7;;;;;;;;;;;;;
2023/06/13 17:20:07;;;;;;;4.3;2.7;;;;;;;;;;;;;
2023/06/13 17:22:33;;;;;;;6.7;2.5;;;;;;;;;;;;;
2023/06/13 17:24:58;;;;;;;4.1;2.8;;;;;;;;;;;;;
2023/06/13 17:27:23;;;;;;;4.5;2.6;;;;;;;;;;;;;
2023/06/13 17:29:48;;;;;;;6.2;2.8;;;;;;;;;;;;;
2023/06/13 17:32:15;;;;;;;5.9;2.6;;;;;;;;;;;;;
2023/06/13 17:34:40;;;;;;;20.1;3.3;;;;;;;;;;;;;
2023/06/13 17:37:07;;;;;;;5.6;2.8;;;;;;;;;;;;;
2023/06/13 17:39:32;;;;;;;3.7;2.4;;;;;;;;;;;;;
2023/06/13 17:42:02;;;;;;;5.6;2.8;;;;;;;;;;;;;
2023/06/13 17:44:22;;;;;;;5.5;2.4;;;;;;;;;;;;;
2023/06/13 17:46:48;;;;;;;6.4;2.7;;;;;;;;;;;;;
2023/06/13 17:49:13;;;;;;;4.7;2.6;;;;;;;;;;;;;
2023/06/13 17:51:40;;;;;;;4.5;2.5;;;;;;;;;;;;;
2023/06/13 17:54:05;;;;;;;4.5;2.6;;;;;;;;;;;;;
2023/06/13 17:56:31;;;;;;;3.8;2.5;;;;;;;;;;;;;
2023/06/13 17:58:56;;;;;;;5.6;2.8;;;;;;;;;;;;;
2023/06/13 18:01:23;;;;;;;4.3;2.5;;;;;;;;;;;;;
2023/06/13 18:03:48;;;;;;;4.7;2.5;;;;;;;;;;;;;
2023/06/13 18:06:16;;;;;;;5.2;2.7;;;;;;;;;;;;;
2023/06/13 18:08:39;;;;;;;5.5;2.8;;;;;;;;;;;;;
2023/06/13 18:11:04;;;;;;;4.2;2.7;;;;;;;;;;;;;
2023/06/13 18:13:30;;;;;;;4.5;2.9;;;;;;;;;;;;;
2023/06/13 18:15:57;;;;;;;3.6;2.6;;;;;;;;;;;;;
2023/06/13 18:18:22;;;;;;;4.1;3;;;;;;;;;;;;;
2023/06/13 18:20:47;;;;;;;5.8;2.8;;;;;;;;;;;;;
2023/06/13 18:23:13;;;;;;;3.5;2.7;;;;;;;;;;;;;
2023/06/13 18:25:39;;;;;;;3.5;2.7;;;;;;;;;;;;;
2023/06/13 18:28:04;;;;;;;4.2;2.8;;;;;;;;;;;;;
2023/06/13 18:30:30;;;;;;;5.8;2.8;;;;;;;;;;;;;
2023/06/13 18:32:55;;;;;;;5.1;2.9;;;;;;;;;;;;;
2023/06/13 18:35:22;;;;;;;7.5;3.2;;;;;;;;;;;;;
2023/06/13 18:37:47;;;;;;;6.3;3.3;;;;;;;;;;;;;
2023/06/13 18:40:15;;;;;;;4;3.3;;;;;;;;;;;;;
2023/06/13 18:42:40;;;;;;;7.8;4.2;;;;;;;;;;;;;
2023/06/13 18:45:05;;;;;;;6.6;3.3;;;;;;;;;;;;;
2023/06/13 18:47:30;;;;;;;5.6;3.5;;;;;;;;;;;;;
2023/06/13 18:49:57;;;;;;;29.4;5.9;;;;;;;;;;;;;
2023/06/13 18:52:22;;;;;;;9.4;4.6;;;;;;;;;;;;;
2023/06/13 18:54:49;;;;;;;12.2;5.9;;;;;;;;;;;;;